sensor_id;sensor_type;location;lat;lon;timestamp;P1;durP1;ratioP1;P2;durP2;ratioP2
65757;SDS011;52495;52.208;5.158;2022-09-24T00:01:14;27.48;;;22.40;;
65757;SDS011;52495;52.208;5.158;2022-09-24T00:03:44;28.23;;;23.73;;
65757;SDS011;52495;52.208;5.158;2022-09-24T00:06:18;27.80;;;21.20;;
65757;SDS011;52495;52.208;5.158;2022-09-24T00:08:44;29.10;;;22.63;;
65757;SDS011;52495;52.208;5.158;2022-09-24T00:11:13;28.58;;;23.30;;
65757;SDS011;52495;52.208;5.158;2022-09-24T00:13:41;27.92;;;21.77;;
65757;SDS011;52495;52.208;5.158;2022-09-24T00:16:09;27.70;;;21.75;;
65757;SDS011;52495;52.208;5.158;2022-09-24T00:18:39;28.50;;;22.80;;
65757;SDS011;52495;52.208;5.158;2022-09-24T00:21:10;28.90;;;23.58;;
65757;SDS011;52495;52.208;5.158;2022-09-24T00:23:38;27.60;;;21.23;;
65757;SDS011;52495;52.208;5.158;2022-09-24T00:26:06;28.10;;;22.27;;
65757;SDS011;52495;52.208;5.158;2022-09-24T00:28:56;28.85;;;22.02;;
65757;SDS011;52495;52.208;5.158;2022-09-24T00:31:23;27.05;;;21.92;;
65757;SDS011;52495;52.208;5.158;2022-09-24T00:33:51;26.13;;;21.92;;
65757;SDS011;52495;52.208;5.158;2022-09-24T00:36:19;28.08;;;22.65;;
65757;SDS011;52495;52.208;5.158;2022-09-24T00:38:47;28.15;;;22.38;;
65757;SDS011;52495;52.208;5.158;2022-09-24T00:41:16;30.48;;;23.23;;
65757;SDS011;52495;52.208;5.158;2022-09-24T00:43:44;31.15;;;24.08;;
65757;SDS011;52495;52.208;5.158;2022-09-24T00:46:14;28.25;;;23.48;;
65757;SDS011;52495;52.208;5.158;2022-09-24T00:48:46;31.42;;;24.55;;
65757;SDS011;52495;52.208;5.158;2022-09-24T00:51:15;29.80;;;22.73;;
65757;SDS011;52495;52.208;5.158;2022-09-24T00:53:44;28.02;;;20.30;;
65757;SDS011;52495;52.208;5.158;2022-09-24T00:56:14;27.20;;;21.50;;
65757;SDS011;52495;52.208;5.158;2022-09-24T00:58:43;26.30;;;19.90;;
65757;SDS011;52495;52.208;5.158;2022-09-24T01:01:15;21.98;;;17.20;;
65757;SDS011;52495;52.208;5.158;2022-09-24T01:03:45;23.13;;;17.70;;
65757;SDS011;52495;52.208;5.158;2022-09-24T01:06:13;20.67;;;16.90;;
65757;SDS011;52495;52.208;5.158;2022-09-24T01:08:40;23.05;;;17.80;;
65757;SDS011;52495;52.208;5.158;2022-09-24T01:11:12;23.33;;;18.63;;
65757;SDS011;52495;52.208;5.158;2022-09-24T01:14:04;25.80;;;19.05;;
65757;SDS011;52495;52.208;5.158;2022-09-24T01:16:52;29.03;;;20.70;;
65757;SDS011;52495;52.208;5.158;2022-09-24T01:19:37;27.75;;;21.35;;
65757;SDS011;52495;52.208;5.158;2022-09-24T01:22:21;24.63;;;20.02;;
65757;SDS011;52495;52.208;5.158;2022-09-24T01:25:00;27.85;;;21.48;;
65757;SDS011;52495;52.208;5.158;2022-09-24T01:27:32;24.52;;;20.13;;
65757;SDS011;52495;52.208;5.158;2022-09-24T01:30:18;28.00;;;20.90;;
65757;SDS011;52495;52.208;5.158;2022-09-24T01:32:47;26.05;;;20.20;;
65757;SDS011;52495;52.208;5.158;2022-09-24T01:35:18;26.98;;;21.02;;
65757;SDS011;52495;52.208;5.158;2022-09-24T01:37:50;26.20;;;20.63;;
65757;SDS011;52495;52.208;5.158;2022-09-24T01:40:22;26.52;;;20.67;;
65757;SDS011;52495;52.208;5.158;2022-09-24T01:42:53;27.75;;;21.40;;
65757;SDS011;52495;52.208;5.158;2022-09-24T01:45:24;25.17;;;20.73;;
65757;SDS011;52495;52.208;5.158;2022-09-24T01:47:54;27.08;;;21.80;;
65757;SDS011;52495;52.208;5.158;2022-09-24T01:50:21;25.42;;;20.02;;
65757;SDS011;52495;52.208;5.158;2022-09-24T01:52:52;25.88;;;19.90;;
65757;SDS011;52495;52.208;5.158;2022-09-24T01:55:24;27.75;;;20.30;;
65757;SDS011;52495;52.208;5.158;2022-09-24T01:57:53;23.13;;;18.98;;
65757;SDS011;52495;52.208;5.158;2022-09-24T02:00:27;24.80;;;19.08;;
65757;SDS011;52495;52.208;5.158;2022-09-24T02:02:55;25.70;;;20.77;;
65757;SDS011;52495;52.208;5.158;2022-09-24T02:05:28;27.33;;;20.15;;
65757;SDS011;52495;52.208;5.158;2022-09-24T02:08:03;29.60;;;22.00;;
65757;SDS011;52495;52.208;5.158;2022-09-24T02:10:37;27.77;;;20.50;;
65757;SDS011;52495;52.208;5.158;2022-09-24T02:13:10;28.33;;;21.70;;
65757;SDS011;52495;52.208;5.158;2022-09-24T02:15:41;28.27;;;20.38;;
65757;SDS011;52495;52.208;5.158;2022-09-24T02:18:11;28.15;;;22.05;;
65757;SDS011;52495;52.208;5.158;2022-09-24T02:20:42;29.30;;;23.17;;
65757;SDS011;52495;52.208;5.158;2022-09-24T02:23:09;33.70;;;23.20;;
65757;SDS011;52495;52.208;5.158;2022-09-24T02:25:40;28.70;;;20.95;;
65757;SDS011;52495;52.208;5.158;2022-09-24T02:28:13;27.85;;;22.25;;
65757;SDS011;52495;52.208;5.158;2022-09-24T02:30:49;30.48;;;22.83;;
65757;SDS011;52495;52.208;5.158;2022-09-24T02:33:19;30.55;;;22.60;;
65757;SDS011;52495;52.208;5.158;2022-09-24T02:36:05;31.48;;;23.48;;
65757;SDS011;52495;52.208;5.158;2022-09-24T02:38:33;31.80;;;23.10;;
65757;SDS011;52495;52.208;5.158;2022-09-24T02:41:00;33.30;;;24.77;;
65757;SDS011;52495;52.208;5.158;2022-09-24T02:43:26;36.78;;;25.48;;
65757;SDS011;52495;52.208;5.158;2022-09-24T02:45:55;31.17;;;23.45;;
65757;SDS011;52495;52.208;5.158;2022-09-24T02:48:22;32.63;;;24.00;;
65757;SDS011;52495;52.208;5.158;2022-09-24T02:50:48;31.83;;;23.77;;
65757;SDS011;52495;52.208;5.158;2022-09-24T02:53:15;31.65;;;24.92;;
65757;SDS011;52495;52.208;5.158;2022-09-24T02:55:42;32.90;;;24.38;;
65757;SDS011;52495;52.208;5.158;2022-09-24T02:58:09;32.55;;;24.50;;
65757;SDS011;52495;52.208;5.158;2022-09-24T03:00:37;33.22;;;24.13;;
65757;SDS011;52495;52.208;5.158;2022-09-24T03:03:06;31.70;;;23.65;;
65757;SDS011;52495;52.208;5.158;2022-09-24T03:05:32;33.38;;;26.13;;
65757;SDS011;52495;52.208;5.158;2022-09-24T03:07:59;32.85;;;23.98;;
65757;SDS011;52495;52.208;5.158;2022-09-24T03:10:26;36.42;;;25.27;;
65757;SDS011;52495;52.208;5.158;2022-09-24T03:12:54;32.85;;;23.75;;
65757;SDS011;52495;52.208;5.158;2022-09-24T03:15:23;33.38;;;23.70;;
65757;SDS011;52495;52.208;5.158;2022-09-24T03:17:50;32.80;;;25.42;;
65757;SDS011;52495;52.208;5.158;2022-09-24T03:20:19;34.50;;;25.45;;
65757;SDS011;52495;52.208;5.158;2022-09-24T03:22:48;32.75;;;25.25;;
65757;SDS011;52495;52.208;5.158;2022-09-24T03:25:15;34.42;;;24.15;;
65757;SDS011;52495;52.208;5.158;2022-09-24T03:27:42;31.55;;;23.52;;
65757;SDS011;52495;52.208;5.158;2022-09-24T03:30:09;30.70;;;24.05;;
65757;SDS011;52495;52.208;5.158;2022-09-24T03:32:54;29.92;;;22.80;;
65757;SDS011;52495;52.208;5.158;2022-09-24T03:35:22;36.08;;;25.48;;
65757;SDS011;52495;52.208;5.158;2022-09-24T03:37:49;34.45;;;25.20;;
65757;SDS011;52495;52.208;5.158;2022-09-24T03:40:16;30.85;;;23.90;;
65757;SDS011;52495;52.208;5.158;2022-09-24T03:42:43;33.42;;;23.48;;
65757;SDS011;52495;52.208;5.158;2022-09-24T03:45:10;33.95;;;23.73;;
65757;SDS011;52495;52.208;5.158;2022-09-24T03:47:37;34.03;;;23.15;;
65757;SDS011;52495;52.208;5.158;2022-09-24T03:50:05;33.95;;;24.70;;
65757;SDS011;52495;52.208;5.158;2022-09-24T03:52:37;36.40;;;25.40;;
65757;SDS011;52495;52.208;5.158;2022-09-24T03:55:04;32.17;;;23.85;;
65757;SDS011;52495;52.208;5.158;2022-09-24T03:57:31;35.28;;;24.17;;
65757;SDS011;52495;52.208;5.158;2022-09-24T03:59:58;35.90;;;23.27;;
65757;SDS011;52495;52.208;5.158;2022-09-24T04:02:25;34.50;;;24.27;;
65757;SDS011;52495;52.208;5.158;2022-09-24T04:04:51;35.17;;;25.75;;
65757;SDS011;52495;52.208;5.158;2022-09-24T04:07:18;34.00;;;24.73;;
65757;SDS011;52495;52.208;5.158;2022-09-24T04:09:46;34.47;;;24.77;;
65757;SDS011;52495;52.208;5.158;2022-09-24T04:12:13;33.45;;;25.00;;
65757;SDS011;52495;52.208;5.158;2022-09-24T04:14:39;34.40;;;24.17;;
65757;SDS011;52495;52.208;5.158;2022-09-24T04:17:06;34.83;;;24.45;;
65757;SDS011;52495;52.208;5.158;2022-09-24T04:19:33;34.03;;;23.65;;
65757;SDS011;52495;52.208;5.158;2022-09-24T04:22:00;35.88;;;25.63;;
65757;SDS011;52495;52.208;5.158;2022-09-24T04:24:26;35.55;;;24.65;;
65757;SDS011;52495;52.208;5.158;2022-09-24T04:26:55;33.22;;;23.65;;
65757;SDS011;52495;52.208;5.158;2022-09-24T04:29:21;32.92;;;24.25;;
65757;SDS011;52495;52.208;5.158;2022-09-24T04:31:48;33.10;;;24.70;;
65757;SDS011;52495;52.208;5.158;2022-09-24T04:34:15;31.80;;;23.30;;
65757;SDS011;52495;52.208;5.158;2022-09-24T04:36:42;33.42;;;24.85;;
65757;SDS011;52495;52.208;5.158;2022-09-24T04:39:09;29.48;;;21.80;;
65757;SDS011;52495;52.208;5.158;2022-09-24T04:41:36;33.80;;;24.48;;
65757;SDS011;52495;52.208;5.158;2022-09-24T04:44:05;34.58;;;25.02;;
65757;SDS011;52495;52.208;5.158;2022-09-24T04:46:32;31.88;;;23.05;;
65757;SDS011;52495;52.208;5.158;2022-09-24T04:48:59;34.92;;;24.83;;
65757;SDS011;52495;52.208;5.158;2022-09-24T04:51:26;31.75;;;23.38;;
65757;SDS011;52495;52.208;5.158;2022-09-24T04:53:52;34.83;;;24.40;;
65757;SDS011;52495;52.208;5.158;2022-09-24T04:56:19;33.28;;;23.27;;
65757;SDS011;52495;52.208;5.158;2022-09-24T04:58:48;33.70;;;24.77;;
65757;SDS011;52495;52.208;5.158;2022-09-24T05:01:17;34.33;;;22.83;;
65757;SDS011;52495;52.208;5.158;2022-09-24T05:03:44;35.22;;;23.05;;
65757;SDS011;52495;52.208;5.158;2022-09-24T05:06:11;32.60;;;21.90;;
65757;SDS011;52495;52.208;5.158;2022-09-24T05:08:39;33.28;;;23.08;;
65757;SDS011;52495;52.208;5.158;2022-09-24T05:11:05;32.20;;;20.38;;
65757;SDS011;52495;52.208;5.158;2022-09-24T05:13:32;34.13;;;22.83;;
65757;SDS011;52495;52.208;5.158;2022-09-24T05:16:00;32.03;;;23.00;;
65757;SDS011;52495;52.208;5.158;2022-09-24T05:18:28;31.40;;;21.23;;
65757;SDS011;52495;52.208;5.158;2022-09-24T05:20:55;30.40;;;21.73;;
65757;SDS011;52495;52.208;5.158;2022-09-24T05:23:22;29.63;;;21.77;;
65757;SDS011;52495;52.208;5.158;2022-09-24T05:25:49;29.63;;;21.27;;
65757;SDS011;52495;52.208;5.158;2022-09-24T05:28:33;30.58;;;22.17;;
65757;SDS011;52495;52.208;5.158;2022-09-24T05:31:01;32.38;;;21.88;;
65757;SDS011;52495;52.208;5.158;2022-09-24T05:33:29;33.28;;;22.00;;
65757;SDS011;52495;52.208;5.158;2022-09-24T05:35:56;32.50;;;21.52;;
65757;SDS011;52495;52.208;5.158;2022-09-24T05:38:23;29.20;;;20.50;;
65757;SDS011;52495;52.208;5.158;2022-09-24T05:40:50;31.85;;;21.83;;
65757;SDS011;52495;52.208;5.158;2022-09-24T05:43:17;32.83;;;21.45;;
65757;SDS011;52495;52.208;5.158;2022-09-24T05:45:44;28.83;;;21.20;;
65757;SDS011;52495;52.208;5.158;2022-09-24T05:48:11;32.33;;;21.85;;
65757;SDS011;52495;52.208;5.158;2022-09-24T05:50:39;33.45;;;24.58;;
65757;SDS011;52495;52.208;5.158;2022-09-24T05:53:07;33.05;;;22.88;;
65757;SDS011;52495;52.208;5.158;2022-09-24T05:55:34;32.33;;;23.25;;
65757;SDS011;52495;52.208;5.158;2022-09-24T05:58:04;30.20;;;21.77;;
65757;SDS011;52495;52.208;5.158;2022-09-24T06:00:33;32.17;;;22.77;;
65757;SDS011;52495;52.208;5.158;2022-09-24T06:03:02;29.90;;;22.10;;
65757;SDS011;52495;52.208;5.158;2022-09-24T06:05:32;29.88;;;22.05;;
65757;SDS011;52495;52.208;5.158;2022-09-24T06:08:01;30.85;;;21.00;;
65757;SDS011;52495;52.208;5.158;2022-09-24T06:10:28;32.80;;;21.52;;
65757;SDS011;52495;52.208;5.158;2022-09-24T06:12:54;31.92;;;22.50;;
65757;SDS011;52495;52.208;5.158;2022-09-24T06:15:21;32.78;;;21.77;;
65757;SDS011;52495;52.208;5.158;2022-09-24T06:17:51;27.75;;;20.10;;
65757;SDS011;52495;52.208;5.158;2022-09-24T06:20:18;30.98;;;21.75;;
65757;SDS011;52495;52.208;5.158;2022-09-24T06:22:45;34.83;;;24.00;;
65757;SDS011;52495;52.208;5.158;2022-09-24T06:25:13;36.45;;;25.25;;
65757;SDS011;52495;52.208;5.158;2022-09-24T06:27:40;34.17;;;24.25;;
65757;SDS011;52495;52.208;5.158;2022-09-24T06:30:07;36.53;;;25.17;;
65757;SDS011;52495;52.208;5.158;2022-09-24T06:32:36;33.42;;;22.88;;
65757;SDS011;52495;52.208;5.158;2022-09-24T06:35:03;35.53;;;23.35;;
65757;SDS011;52495;52.208;5.158;2022-09-24T06:37:30;33.65;;;23.35;;
65757;SDS011;52495;52.208;5.158;2022-09-24T06:39:58;32.80;;;23.50;;
65757;SDS011;52495;52.208;5.158;2022-09-24T06:42:26;34.72;;;22.60;;
65757;SDS011;52495;52.208;5.158;2022-09-24T06:44:54;33.03;;;23.02;;
65757;SDS011;52495;52.208;5.158;2022-09-24T06:47:21;32.75;;;24.13;;
65757;SDS011;52495;52.208;5.158;2022-09-24T06:49:48;37.45;;;23.60;;
65757;SDS011;52495;52.208;5.158;2022-09-24T06:52:15;36.33;;;24.33;;
65757;SDS011;52495;52.208;5.158;2022-09-24T06:54:42;36.20;;;23.90;;
65757;SDS011;52495;52.208;5.158;2022-09-24T06:57:12;32.67;;;23.48;;
65757;SDS011;52495;52.208;5.158;2022-09-24T06:59:41;31.77;;;21.80;;
65757;SDS011;52495;52.208;5.158;2022-09-24T07:02:08;33.50;;;23.55;;
65757;SDS011;52495;52.208;5.158;2022-09-24T07:04:35;29.30;;;21.45;;
65757;SDS011;52495;52.208;5.158;2022-09-24T07:07:03;28.75;;;20.20;;
65757;SDS011;52495;52.208;5.158;2022-09-24T07:09:47;25.75;;;17.77;;
65757;SDS011;52495;52.208;5.158;2022-09-24T07:12:14;28.27;;;19.30;;
65757;SDS011;52495;52.208;5.158;2022-09-24T07:14:42;24.42;;;16.83;;
65757;SDS011;52495;52.208;5.158;2022-09-24T07:17:09;22.60;;;17.38;;
65757;SDS011;52495;52.208;5.158;2022-09-24T07:19:36;23.10;;;16.88;;
65757;SDS011;52495;52.208;5.158;2022-09-24T07:22:03;24.85;;;17.95;;
65757;SDS011;52495;52.208;5.158;2022-09-24T07:24:30;24.83;;;16.83;;
65757;SDS011;52495;52.208;5.158;2022-09-24T07:26:57;22.52;;;16.40;;
65757;SDS011;52495;52.208;5.158;2022-09-24T07:29:23;23.85;;;17.45;;
65757;SDS011;52495;52.208;5.158;2022-09-24T07:31:51;18.65;;;13.90;;
65757;SDS011;52495;52.208;5.158;2022-09-24T07:34:18;24.10;;;17.80;;
65757;SDS011;52495;52.208;5.158;2022-09-24T07:36:45;25.92;;;18.58;;
65757;SDS011;52495;52.208;5.158;2022-09-24T07:39:12;24.60;;;17.15;;
65757;SDS011;52495;52.208;5.158;2022-09-24T07:41:38;22.83;;;16.08;;
65757;SDS011;52495;52.208;5.158;2022-09-24T07:44:06;22.83;;;16.98;;
65757;SDS011;52495;52.208;5.158;2022-09-24T07:46:33;23.25;;;15.60;;
65757;SDS011;52495;52.208;5.158;2022-09-24T07:49:01;23.48;;;16.23;;
65757;SDS011;52495;52.208;5.158;2022-09-24T07:51:28;24.60;;;16.83;;
65757;SDS011;52495;52.208;5.158;2022-09-24T07:53:55;22.17;;;15.75;;
65757;SDS011;52495;52.208;5.158;2022-09-24T07:56:23;24.05;;;16.85;;
65757;SDS011;52495;52.208;5.158;2022-09-24T07:58:51;24.10;;;16.08;;
65757;SDS011;52495;52.208;5.158;2022-09-24T08:01:18;30.10;;;20.33;;
65757;SDS011;52495;52.208;5.158;2022-09-24T08:03:45;26.73;;;18.90;;
65757;SDS011;52495;52.208;5.158;2022-09-24T08:06:14;24.20;;;16.70;;
65757;SDS011;52495;52.208;5.158;2022-09-24T08:08:41;27.25;;;17.23;;
65757;SDS011;52495;52.208;5.158;2022-09-24T08:11:09;21.75;;;15.10;;
65757;SDS011;52495;52.208;5.158;2022-09-24T08:13:37;21.45;;;15.23;;
65757;SDS011;52495;52.208;5.158;2022-09-24T08:16:04;21.80;;;14.73;;
65757;SDS011;52495;52.208;5.158;2022-09-24T08:18:32;23.00;;;13.90;;
65757;SDS011;52495;52.208;5.158;2022-09-24T08:21:02;19.05;;;12.55;;
65757;SDS011;52495;52.208;5.158;2022-09-24T08:23:31;18.38;;;11.95;;
65757;SDS011;52495;52.208;5.158;2022-09-24T08:26:00;21.20;;;14.80;;
65757;SDS011;52495;52.208;5.158;2022-09-24T08:28:27;21.45;;;14.15;;
65757;SDS011;52495;52.208;5.158;2022-09-24T08:30:56;19.70;;;13.43;;
65757;SDS011;52495;52.208;5.158;2022-09-24T08:33:24;14.88;;;10.63;;
65757;SDS011;52495;52.208;5.158;2022-09-24T08:35:51;14.48;;;9.43;;
65757;SDS011;52495;52.208;5.158;2022-09-24T08:38:18;12.68;;;9.77;;
65757;SDS011;52495;52.208;5.158;2022-09-24T08:40:50;10.32;;;7.57;;
65757;SDS011;52495;52.208;5.158;2022-09-24T08:43:24;8.38;;;5.95;;
65757;SDS011;52495;52.208;5.158;2022-09-24T08:46:00;7.68;;;5.82;;
65757;SDS011;52495;52.208;5.158;2022-09-24T08:48:52;10.27;;;5.80;;
65757;SDS011;52495;52.208;5.158;2022-09-24T08:51:22;4.88;;;3.50;;
65757;SDS011;52495;52.208;5.158;2022-09-24T08:53:52;5.97;;;3.30;;
65757;SDS011;52495;52.208;5.158;2022-09-24T08:58:54;6.97;;;2.92;;
65757;SDS011;52495;52.208;5.158;2022-09-24T09:01:27;4.60;;;2.47;;
65757;SDS011;52495;52.208;5.158;2022-09-24T09:04:02;6.28;;;2.42;;
65757;SDS011;52495;52.208;5.158;2022-09-24T09:06:42;5.65;;;2.30;;
65757;SDS011;52495;52.208;5.158;2022-09-24T09:09:20;4.60;;;2.22;;
65757;SDS011;52495;52.208;5.158;2022-09-24T09:11:51;6.30;;;2.83;;
65757;SDS011;52495;52.208;5.158;2022-09-24T09:14:23;7.70;;;2.83;;
65757;SDS011;52495;52.208;5.158;2022-09-24T09:16:57;6.32;;;2.33;;
65757;SDS011;52495;52.208;5.158;2022-09-24T09:19:27;7.40;;;2.25;;
65757;SDS011;52495;52.208;5.158;2022-09-24T09:21:59;8.02;;;2.55;;
65757;SDS011;52495;52.208;5.158;2022-09-24T09:24:34;4.57;;;2.30;;
65757;SDS011;52495;52.208;5.158;2022-09-24T09:27:11;6.68;;;2.88;;
65757;SDS011;52495;52.208;5.158;2022-09-24T09:32:08;7.38;;;2.33;;
65757;SDS011;52495;52.208;5.158;2022-09-24T09:34:48;5.45;;;1.70;;
65757;SDS011;52495;52.208;5.158;2022-09-24T09:37:25;12.65;;;3.00;;
65757;SDS011;52495;52.208;5.158;2022-09-24T09:39:57;5.03;;;1.58;;
65757;SDS011;52495;52.208;5.158;2022-09-24T09:42:36;8.00;;;2.25;;
65757;SDS011;52495;52.208;5.158;2022-09-24T09:45:12;6.32;;;1.88;;
65757;SDS011;52495;52.208;5.158;2022-09-24T09:47:46;10.05;;;2.63;;
65757;SDS011;52495;52.208;5.158;2022-09-24T09:50:19;4.15;;;1.67;;
65757;SDS011;52495;52.208;5.158;2022-09-24T09:52:53;9.73;;;1.85;;
65757;SDS011;52495;52.208;5.158;2022-09-24T09:55:21;6.32;;;2.33;;
65757;SDS011;52495;52.208;5.158;2022-09-24T09:57:50;7.78;;;2.13;;
65757;SDS011;52495;52.208;5.158;2022-09-24T10:00:25;6.10;;;1.83;;
65757;SDS011;52495;52.208;5.158;2022-09-24T10:02:58;8.25;;;2.25;;
65757;SDS011;52495;52.208;5.158;2022-09-24T10:05:24;6.65;;;2.00;;
65757;SDS011;52495;52.208;5.158;2022-09-24T10:07:53;6.00;;;1.70;;
65757;SDS011;52495;52.208;5.158;2022-09-24T10:10:22;5.07;;;2.13;;
65757;SDS011;52495;52.208;5.158;2022-09-24T10:12:53;5.93;;;2.13;;
65757;SDS011;52495;52.208;5.158;2022-09-24T10:15:21;14.90;;;2.72;;
65757;SDS011;52495;52.208;5.158;2022-09-24T10:17:50;9.27;;;2.25;;
65757;SDS011;52495;52.208;5.158;2022-09-24T10:20:20;9.77;;;2.80;;
65757;SDS011;52495;52.208;5.158;2022-09-24T10:22:51;7.18;;;2.35;;
65757;SDS011;52495;52.208;5.158;2022-09-24T10:25:20;7.03;;;2.55;;
65757;SDS011;52495;52.208;5.158;2022-09-24T10:27:50;8.52;;;2.83;;
65757;SDS011;52495;52.208;5.158;2022-09-24T10:30:46;9.45;;;2.60;;
65757;SDS011;52495;52.208;5.158;2022-09-24T10:33:15;9.68;;;2.45;;
65757;SDS011;52495;52.208;5.158;2022-09-24T10:35:43;8.10;;;3.45;;
65757;SDS011;52495;52.208;5.158;2022-09-24T10:38:14;8.50;;;2.65;;
65757;SDS011;52495;52.208;5.158;2022-09-24T10:40:42;7.30;;;2.15;;
65757;SDS011;52495;52.208;5.158;2022-09-24T10:43:16;8.23;;;2.00;;
65757;SDS011;52495;52.208;5.158;2022-09-24T10:45:51;8.55;;;2.75;;
65757;SDS011;52495;52.208;5.158;2022-09-24T10:48:39;5.47;;;2.15;;
65757;SDS011;52495;52.208;5.158;2022-09-24T10:51:17;10.25;;;2.92;;
65757;SDS011;52495;52.208;5.158;2022-09-24T10:53:55;8.18;;;2.30;;
65757;SDS011;52495;52.208;5.158;2022-09-24T10:56:35;8.75;;;3.17;;
65757;SDS011;52495;52.208;5.158;2022-09-24T10:59:15;10.00;;;2.63;;
65757;SDS011;52495;52.208;5.158;2022-09-24T11:01:57;11.75;;;2.40;;
65757;SDS011;52495;52.208;5.158;2022-09-24T11:04:43;10.43;;;2.72;;
65757;SDS011;52495;52.208;5.158;2022-09-24T11:07:25;10.20;;;3.20;;
65757;SDS011;52495;52.208;5.158;2022-09-24T11:10:00;5.65;;;1.73;;
65757;SDS011;52495;52.208;5.158;2022-09-24T11:12:40;7.10;;;1.58;;
65757;SDS011;52495;52.208;5.158;2022-09-24T11:15:24;6.88;;;2.10;;
65757;SDS011;52495;52.208;5.158;2022-09-24T11:18:08;9.75;;;2.58;;
65757;SDS011;52495;52.208;5.158;2022-09-24T11:20:52;10.75;;;2.15;;
65757;SDS011;52495;52.208;5.158;2022-09-24T11:23:29;6.82;;;1.88;;
65757;SDS011;52495;52.208;5.158;2022-09-24T11:26:19;13.85;;;2.92;;
65757;SDS011;52495;52.208;5.158;2022-09-24T11:28:59;8.73;;;2.47;;
65757;SDS011;52495;52.208;5.158;2022-09-24T11:31:37;7.90;;;2.38;;
65757;SDS011;52495;52.208;5.158;2022-09-24T11:34:13;14.77;;;2.67;;
65757;SDS011;52495;52.208;5.158;2022-09-24T11:36:58;9.98;;;2.08;;
65757;SDS011;52495;52.208;5.158;2022-09-24T11:39:45;10.80;;;2.58;;
65757;SDS011;52495;52.208;5.158;2022-09-24T11:42:21;8.10;;;2.45;;
65757;SDS011;52495;52.208;5.158;2022-09-24T11:45:04;10.00;;;1.95;;
65757;SDS011;52495;52.208;5.158;2022-09-24T11:47:53;7.70;;;2.17;;
65757;SDS011;52495;52.208;5.158;2022-09-24T11:50:36;12.65;;;2.85;;
65757;SDS011;52495;52.208;5.158;2022-09-24T11:53:13;10.13;;;2.47;;
65757;SDS011;52495;52.208;5.158;2022-09-24T11:55:47;10.77;;;2.50;;
65757;SDS011;52495;52.208;5.158;2022-09-24T11:58:19;9.20;;;2.72;;
65757;SDS011;52495;52.208;5.158;2022-09-24T12:00:52;4.90;;;2.25;;
65757;SDS011;52495;52.208;5.158;2022-09-24T12:03:23;8.80;;;2.83;;
65757;SDS011;52495;52.208;5.158;2022-09-24T12:05:58;13.10;;;2.28;;
65757;SDS011;52495;52.208;5.158;2022-09-24T12:08:32;8.23;;;2.55;;
65757;SDS011;52495;52.208;5.158;2022-09-24T12:11:06;10.95;;;2.88;;
65757;SDS011;52495;52.208;5.158;2022-09-24T12:13:39;10.57;;;2.42;;
65757;SDS011;52495;52.208;5.158;2022-09-24T12:16:12;6.95;;;1.85;;
65757;SDS011;52495;52.208;5.158;2022-09-24T12:18:45;6.38;;;1.73;;
65757;SDS011;52495;52.208;5.158;2022-09-24T12:21:19;8.73;;;2.30;;
65757;SDS011;52495;52.208;5.158;2022-09-24T12:26:18;7.95;;;2.33;;
65757;SDS011;52495;52.208;5.158;2022-09-24T12:28:50;7.65;;;2.58;;
65757;SDS011;52495;52.208;5.158;2022-09-24T12:31:39;16.20;;;2.90;;
65757;SDS011;52495;52.208;5.158;2022-09-24T12:34:33;7.97;;;2.13;;
65757;SDS011;52495;52.208;5.158;2022-09-24T12:37:08;6.50;;;1.75;;
65757;SDS011;52495;52.208;5.158;2022-09-24T12:39:37;7.97;;;2.05;;
65757;SDS011;52495;52.208;5.158;2022-09-24T12:42:10;11.48;;;1.77;;
65757;SDS011;52495;52.208;5.158;2022-09-24T12:44:40;7.55;;;2.10;;
65757;SDS011;52495;52.208;5.158;2022-09-24T12:47:14;9.30;;;1.58;;
65757;SDS011;52495;52.208;5.158;2022-09-24T12:49:48;9.80;;;2.15;;
65757;SDS011;52495;52.208;5.158;2022-09-24T12:52:22;9.93;;;1.92;;
65757;SDS011;52495;52.208;5.158;2022-09-24T12:54:57;11.02;;;2.42;;
65757;SDS011;52495;52.208;5.158;2022-09-24T12:57:33;7.28;;;1.75;;
65757;SDS011;52495;52.208;5.158;2022-09-24T13:00:03;8.02;;;2.05;;
65757;SDS011;52495;52.208;5.158;2022-09-24T13:02:51;10.07;;;2.60;;
65757;SDS011;52495;52.208;5.158;2022-09-24T13:05:26;6.57;;;1.65;;
65757;SDS011;52495;52.208;5.158;2022-09-24T13:08:01;10.77;;;2.28;;
65757;SDS011;52495;52.208;5.158;2022-09-24T13:10:29;7.53;;;1.92;;
65757;SDS011;52495;52.208;5.158;2022-09-24T13:12:57;9.02;;;2.10;;
65757;SDS011;52495;52.208;5.158;2022-09-24T13:15:32;7.40;;;1.55;;
65757;SDS011;52495;52.208;5.158;2022-09-24T13:18:05;10.50;;;1.90;;
65757;SDS011;52495;52.208;5.158;2022-09-24T13:20:55;9.85;;;2.50;;
65757;SDS011;52495;52.208;5.158;2022-09-24T13:23:29;9.32;;;1.98;;
65757;SDS011;52495;52.208;5.158;2022-09-24T13:25:59;9.10;;;2.08;;
65757;SDS011;52495;52.208;5.158;2022-09-24T13:28:29;8.10;;;1.90;;
65757;SDS011;52495;52.208;5.158;2022-09-24T13:31:01;8.80;;;2.03;;
65757;SDS011;52495;52.208;5.158;2022-09-24T13:33:35;7.15;;;1.50;;
65757;SDS011;52495;52.208;5.158;2022-09-24T13:36:11;6.95;;;1.50;;
65757;SDS011;52495;52.208;5.158;2022-09-24T13:38:42;8.55;;;2.00;;
65757;SDS011;52495;52.208;5.158;2022-09-24T13:41:22;6.35;;;2.03;;
65757;SDS011;52495;52.208;5.158;2022-09-24T13:43:56;9.90;;;1.80;;
65757;SDS011;52495;52.208;5.158;2022-09-24T13:46:27;10.60;;;2.80;;
65757;SDS011;52495;52.208;5.158;2022-09-24T13:48:58;7.95;;;1.80;;
65757;SDS011;52495;52.208;5.158;2022-09-24T13:51:32;4.78;;;1.63;;
65757;SDS011;52495;52.208;5.158;2022-09-24T13:54:04;8.45;;;2.13;;
65757;SDS011;52495;52.208;5.158;2022-09-24T13:56:38;8.32;;;1.83;;
65757;SDS011;52495;52.208;5.158;2022-09-24T13:59:05;6.95;;;1.88;;
65757;SDS011;52495;52.208;5.158;2022-09-24T14:01:38;9.73;;;1.90;;
65757;SDS011;52495;52.208;5.158;2022-09-24T14:04:13;8.65;;;1.75;;
65757;SDS011;52495;52.208;5.158;2022-09-24T14:06:45;8.32;;;1.85;;
65757;SDS011;52495;52.208;5.158;2022-09-24T14:09:15;6.07;;;2.00;;
65757;SDS011;52495;52.208;5.158;2022-09-24T14:11:58;8.60;;;2.67;;
65757;SDS011;52495;52.208;5.158;2022-09-24T14:14:27;7.05;;;1.77;;
65757;SDS011;52495;52.208;5.158;2022-09-24T14:17:04;7.45;;;1.92;;
65757;SDS011;52495;52.208;5.158;2022-09-24T14:19:32;6.82;;;1.75;;
65757;SDS011;52495;52.208;5.158;2022-09-24T14:22:01;6.78;;;1.90;;
65757;SDS011;52495;52.208;5.158;2022-09-24T14:24:38;7.72;;;1.67;;
65757;SDS011;52495;52.208;5.158;2022-09-24T14:32:42;7.10;;;2.05;;
65757;SDS011;52495;52.208;5.158;2022-09-24T14:35:11;5.03;;;1.83;;
65757;SDS011;52495;52.208;5.158;2022-09-24T14:37:47;6.13;;;1.67;;
65757;SDS011;52495;52.208;5.158;2022-09-24T14:40:17;8.00;;;1.90;;
65757;SDS011;52495;52.208;5.158;2022-09-24T14:42:45;5.38;;;1.58;;
65757;SDS011;52495;52.208;5.158;2022-09-24T14:45:16;6.43;;;2.17;;
65757;SDS011;52495;52.208;5.158;2022-09-24T14:47:45;6.20;;;1.70;;
65757;SDS011;52495;52.208;5.158;2022-09-24T14:50:25;7.10;;;1.73;;
65757;SDS011;52495;52.208;5.158;2022-09-24T14:52:58;6.63;;;1.60;;
65757;SDS011;52495;52.208;5.158;2022-09-24T14:55:34;6.05;;;1.50;;
65757;SDS011;52495;52.208;5.158;2022-09-24T14:58:02;12.20;;;2.67;;
65757;SDS011;52495;52.208;5.158;2022-09-24T15:00:29;10.35;;;1.98;;
65757;SDS011;52495;52.208;5.158;2022-09-24T15:03:03;5.60;;;1.65;;
65757;SDS011;52495;52.208;5.158;2022-09-24T15:05:38;7.63;;;2.20;;
65757;SDS011;52495;52.208;5.158;2022-09-24T15:08:14;8.90;;;2.42;;